createdAt,value
2018-09-30T12:09:11.972Z,1007.80
2018-09-30T12:10:11.916Z,1007.77
2018-09-30T12:11:11.899Z,1007.76
2018-09-30T12:12:11.882Z,1007.80
2018-09-30T12:13:11.862Z,1007.78
2018-09-30T12:14:11.848Z,1007.78
2018-09-30T12:15:11.840Z,1007.73
2018-09-30T12:16:11.814Z,1007.69
2018-09-30T12:17:11.798Z,1007.69
2018-09-30T12:18:11.780Z,1007.65
2018-09-30T12:19:11.766Z,1007.59
2018-09-30T12:20:11.758Z,1007.59
2018-09-30T12:21:11.734Z,1007.50
2018-09-30T12:22:11.724Z,1007.51
2018-09-30T12:23:11.707Z,1007.50
2018-09-30T12:24:11.695Z,1007.43
2018-09-30T12:25:11.687Z,1007.46
2018-09-30T12:26:11.662Z,1007.38
2018-09-30T12:27:11.649Z,1007.42
2018-09-30T12:28:11.635Z,1007.39
2018-09-30T12:29:11.619Z,1007.42
2018-09-30T12:30:11.625Z,1007.36
2018-09-30T12:31:11.592Z,1007.37
2018-09-30T12:32:11.577Z,1007.31
2018-09-30T12:33:11.571Z,1007.30
2018-09-30T12:34:11.551Z,1007.27
2018-09-30T12:35:11.541Z,1007.26
2018-09-30T12:36:11.540Z,1007.21
2018-09-30T12:37:11.514Z,1007.19
2018-09-30T12:38:11.500Z,1007.18
2018-09-30T12:39:11.489Z,1007.22
2018-09-30T12:40:11.473Z,1007.24
2018-09-30T12:41:11.459Z,1007.22
2018-09-30T12:42:11.456Z,1007.21
2018-09-30T12:43:11.438Z,1007.25
2018-09-30T12:44:11.423Z,1007.19
2018-09-30T12:45:11.411Z,1007.20
2018-09-30T12:46:11.398Z,1007.18
2018-09-30T12:47:11.394Z,1007.23
2018-09-30T12:48:11.374Z,1007.20
2018-09-30T12:49:11.360Z,1007.20
2018-09-30T12:50:11.349Z,1007.21
2018-09-30T12:51:11.336Z,1007.16
2018-09-30T12:52:11.335Z,1007.17
2018-09-30T12:53:11.312Z,1007.17
2018-09-30T12:54:11.301Z,1007.23
2018-09-30T12:55:11.289Z,1007.19
2018-09-30T12:56:11.279Z,1007.21
2018-09-30T12:57:11.277Z,1007.18
2018-09-30T12:58:11.277Z,1007.16
2018-09-30T12:59:11.241Z,1007.12
2018-09-30T13:00:11.229Z,1007.12
2018-09-30T13:01:11.218Z,1007.03
2018-09-30T13:02:11.217Z,1007.07
2018-09-30T13:03:11.195Z,1007.05
2018-09-30T13:04:11.184Z,1007.05
2018-09-30T13:05:11.172Z,1007.09
2018-09-30T13:06:11.165Z,1007.08
2018-09-30T13:07:11.159Z,1007.09
2018-09-30T13:08:11.135Z,1007.08
2018-09-30T13:09:11.124Z,1007.06
2018-09-30T13:10:11.112Z,1007.06
2018-09-30T13:11:11.103Z,1007.03
2018-09-30T13:12:11.104Z,1007.00
2018-09-30T13:13:11.079Z,1006.99
2018-09-30T13:14:11.069Z,1007.02
2018-09-30T13:15:11.058Z,1007.01
2018-09-30T13:16:11.048Z,1006.94
2018-09-30T13:17:11.033Z,1006.94
2018-09-30T13:18:11.053Z,1007.02
2018-09-30T13:19:11.016Z,1006.97
2018-09-30T13:20:11.002Z,1006.95
2018-09-30T13:21:10.991Z,1006.95
2018-09-30T13:22:10.979Z,1006.94
2018-09-30T13:23:10.969Z,1006.99
2018-09-30T13:24:10.967Z,1006.95
2018-09-30T13:25:10.947Z,1006.97
2018-09-30T13:26:10.937Z,1006.97
2018-09-30T13:27:10.926Z,1006.93
2018-09-30T13:28:10.921Z,1006.90
2018-09-30T13:29:10.912Z,1006.93
2018-09-30T13:30:10.898Z,1006.90
2018-09-30T13:31:10.884Z,1006.87
2018-09-30T13:32:10.877Z,1006.84
2018-09-30T13:33:10.868Z,1006.85
2018-09-30T13:34:10.858Z,1006.87
2018-09-30T13:35:10.844Z,1006.86
2018-09-30T13:36:10.836Z,1006.82
2018-09-30T13:37:10.821Z,1006.81
2018-09-30T13:38:10.813Z,1006.78
2018-09-30T13:39:10.818Z,1006.80
2018-09-30T13:40:10.890Z,1006.81
2018-09-30T13:41:10.913Z,1006.87
2018-09-30T13:42:10.773Z,1006.88
2018-09-30T13:43:10.761Z,1006.98
2018-09-30T13:44:10.751Z,1007.12
2018-09-30T13:45:10.751Z,1007.45
2018-09-30T13:46:10.834Z,1007.71
2018-09-30T13:47:10.724Z,1007.74
2018-09-30T13:48:10.710Z,1007.61
2018-09-30T13:49:10.698Z,1007.53
2018-09-30T13:50:10.688Z,1007.49
2018-09-30T13:51:10.747Z,1007.42
2018-09-30T13:52:10.669Z,1007.44
2018-09-30T13:53:10.661Z,1007.43
2018-09-30T13:54:10.653Z,1007.42
2018-09-30T13:55:10.644Z,1007.44
2018-09-30T13:56:10.642Z,1007.43
2018-09-30T13:57:10.617Z,1007.33
2018-09-30T13:58:10.620Z,1007.35
2018-09-30T13:59:10.613Z,1007.42
2018-09-30T14:00:10.591Z,1007.14
2018-09-30T14:01:10.582Z,1006.74
2018-09-30T14:02:10.589Z,1006.83
2018-09-30T14:03:10.559Z,1007.14
2018-09-30T14:04:10.549Z,1007.27
2018-09-30T14:05:10.541Z,1007.28
2018-09-30T14:06:10.532Z,1007.26
2018-09-30T14:07:10.548Z,1007.35
2018-09-30T14:08:10.509Z,1007.32
2018-09-30T14:09:10.499Z,1007.34
2018-09-30T14:10:10.491Z,1007.28
2018-09-30T14:11:10.482Z,1007.27
2018-09-30T14:12:10.472Z,1007.32
2018-09-30T14:13:10.472Z,1007.30
2018-09-30T14:14:10.471Z,1007.29
2018-09-30T14:15:10.444Z,1007.28
2018-09-30T14:16:10.430Z,1007.23
2018-09-30T14:17:10.429Z,1007.21
2018-09-30T14:18:10.412Z,1007.23
2018-09-30T14:19:10.415Z,1007.20
2018-09-30T14:20:10.393Z,1007.20
2018-09-30T14:21:10.386Z,1007.17
2018-09-30T14:22:10.391Z,1007.16
2018-09-30T14:23:10.370Z,1007.18
2018-09-30T14:24:10.360Z,1007.18
2018-09-30T14:25:10.357Z,1007.19
2018-09-30T14:26:10.343Z,1007.15
2018-09-30T14:27:10.383Z,1007.17
2018-09-30T14:28:10.320Z,1007.17
2018-09-30T14:29:10.315Z,1007.17
2018-09-30T14:30:10.304Z,1007.17
2018-09-30T14:31:10.298Z,1007.16
2018-09-30T14:32:10.289Z,1007.12
2018-09-30T14:33:10.288Z,1007.10
2018-09-30T14:34:10.327Z,1007.11
2018-09-30T14:35:10.269Z,1007.07
2018-09-30T14:36:10.253Z,1007.09
2018-09-30T14:37:10.250Z,1007.06
2018-09-30T14:38:10.245Z,1007.08
2018-09-30T14:39:10.229Z,1007.03
2018-09-30T14:40:10.218Z,1006.85
2018-09-30T14:41:10.213Z,1006.53
2018-09-30T14:42:10.208Z,1006.27
2018-09-30T14:43:10.194Z,1006.26
2018-09-30T14:44:10.178Z,1006.25
2018-09-30T14:45:10.178Z,1006.24
2018-09-30T14:46:10.167Z,1006.23
2018-09-30T14:47:10.167Z,1006.22
2018-09-30T14:48:10.190Z,1006.21
2018-09-30T14:49:10.140Z,1006.23
2018-09-30T14:50:10.129Z,1006.21
2018-09-30T14:51:10.122Z,1006.23
2018-09-30T14:52:10.141Z,1006.19
2018-09-30T14:53:10.101Z,1006.15
2018-09-30T14:54:10.100Z,1006.14
2018-09-30T14:55:10.078Z,1006.11
2018-09-30T14:56:10.069Z,1006.09
2018-09-30T14:57:10.056Z,1006.08
2018-09-30T14:58:10.052Z,1006.10
2018-09-30T14:59:10.034Z,1006.11
2018-09-30T15:00:10.023Z,1006.08
2018-09-30T15:01:10.009Z,1006.06
2018-09-30T15:02:09.996Z,1006.08
2018-09-30T15:03:09.996Z,1006.10
2018-09-30T15:04:09.972Z,1006.09
2018-09-30T15:05:09.961Z,1006.06
2018-09-30T15:06:09.973Z,1006.02
2018-09-30T15:07:09.964Z,1006.02
2018-09-30T15:08:09.936Z,1005.99
2018-09-30T15:09:09.913Z,1006.02
2018-09-30T15:10:09.899Z,1006.02
2018-09-30T15:11:09.886Z,1006.01
2018-09-30T15:12:09.871Z,1005.98
2018-09-30T15:13:09.856Z,1005.97
2018-09-30T15:14:09.856Z,1005.96
2018-09-30T15:15:09.834Z,1005.97
2018-09-30T15:16:09.820Z,1005.93
2018-09-30T15:17:09.807Z,1005.93
2018-09-30T15:18:09.798Z,1005.89
2018-09-30T15:19:09.792Z,1005.91
2018-09-30T15:20:09.764Z,1005.89
2018-09-30T15:21:09.750Z,1005.89
2018-09-30T15:22:09.740Z,1005.86
2018-09-30T15:23:09.723Z,1005.84
2018-09-30T15:24:09.713Z,1005.77
2018-09-30T15:25:09.704Z,1005.81
2018-09-30T15:26:09.683Z,1005.77
2018-09-30T15:27:09.671Z,1005.78
2018-09-30T15:28:09.655Z,1005.78
2018-09-30T15:29:09.642Z,1005.79
2018-09-30T15:30:09.641Z,1005.78
2018-09-30T15:31:09.614Z,1005.77
2018-09-30T15:32:09.603Z,1005.75
2018-09-30T15:33:09.585Z,1005.74
2018-09-30T15:34:09.572Z,1005.78
2018-09-30T15:35:09.559Z,1005.76
2018-09-30T15:36:09.552Z,1005.72
2018-09-30T15:37:09.530Z,1005.71
2018-09-30T15:38:09.514Z,1005.69
2018-09-30T15:39:09.501Z,1005.69
2018-09-30T15:40:09.485Z,1005.68
2018-09-30T15:41:09.480Z,1005.64
2018-09-30T15:42:09.458Z,1005.63
2018-09-30T15:43:09.443Z,1005.62
2018-09-30T15:44:09.428Z,1005.64
2018-09-30T15:45:09.418Z,1005.61
2018-09-30T15:46:09.431Z,1005.64
2018-09-30T15:47:09.384Z,1005.58
2018-09-30T15:48:09.369Z,1005.58
2018-09-30T15:49:09.357Z,1005.57
2018-09-30T15:50:09.344Z,1005.57
2018-09-30T15:51:09.327Z,1005.60
2018-09-30T15:52:09.325Z,1005.61
2018-09-30T15:53:09.296Z,1005.67
2018-09-30T15:54:09.285Z,1005.61
2018-09-30T15:55:09.267Z,1005.62
2018-09-30T15:56:09.252Z,1005.61
2018-09-30T15:57:09.237Z,1005.60
2018-09-30T15:58:09.234Z,1005.60
2018-09-30T15:59:09.206Z,1005.61
2018-09-30T16:00:09.192Z,1005.61
2018-09-30T16:01:09.176Z,1005.64
2018-09-30T16:02:09.162Z,1005.60
2018-09-30T16:03:09.157Z,1005.59
2018-09-30T16:04:09.132Z,1005.60
2018-09-30T16:05:09.116Z,1005.61
2018-09-30T16:06:09.103Z,1005.57
2018-09-30T16:07:09.086Z,1005.57
2018-09-30T16:08:09.082Z,1005.63
2018-09-30T16:09:09.057Z,1005.67
2018-09-30T16:10:09.043Z,1005.65
2018-09-30T16:11:09.027Z,1005.65
2018-09-30T16:12:09.012Z,1005.63
2018-09-30T16:13:09.037Z,1005.60
2018-09-30T16:14:08.980Z,1005.65
2018-09-30T16:15:08.967Z,1005.64
2018-09-30T16:16:08.952Z,1005.61
2018-09-30T16:17:08.934Z,1005.61
2018-09-30T16:18:08.928Z,1005.64
2018-09-30T16:19:08.911Z,1005.64
2018-09-30T16:20:08.885Z,1005.62
2018-09-30T16:21:08.902Z,1005.67
2018-09-30T16:22:08.857Z,1005.67
2018-09-30T16:23:08.848Z,1005.66
2018-09-30T16:24:08.827Z,1005.66
2018-09-30T16:25:08.810Z,1005.64
2018-09-30T16:26:08.795Z,1005.65
2018-09-30T16:27:08.781Z,1005.64
2018-09-30T16:28:08.837Z,1005.67
2018-09-30T16:29:08.749Z,1005.64
2018-09-30T16:30:08.736Z,1005.62
2018-09-30T16:31:08.717Z,1005.60
2018-09-30T16:32:08.701Z,1005.59
2018-09-30T16:33:08.685Z,1005.58
2018-09-30T16:34:08.683Z,1005.54
2018-09-30T16:35:08.713Z,1005.54
2018-09-30T16:36:08.636Z,1005.56
2018-09-30T16:37:08.621Z,1005.55
2018-09-30T16:38:08.606Z,1005.54
2018-09-30T16:39:08.590Z,1005.54
2018-09-30T16:40:08.582Z,1005.51
2018-09-30T16:41:08.556Z,1005.51
2018-09-30T16:42:08.546Z,1005.49
2018-09-30T16:43:08.528Z,1005.49
2018-09-30T16:44:08.510Z,1005.47
2018-09-30T16:45:08.506Z,1005.46
2018-09-30T16:46:08.478Z,1005.48
2018-09-30T16:47:08.462Z,1005.50
2018-09-30T16:48:08.444Z,1005.49
2018-09-30T16:49:08.430Z,1005.54
2018-09-30T16:50:08.426Z,1005.56
2018-09-30T16:51:08.396Z,1005.58
2018-09-30T16:52:08.378Z,1005.62
2018-09-30T16:53:08.364Z,1005.64
2018-09-30T16:54:08.347Z,1005.67
2018-09-30T16:55:08.362Z,1005.60
2018-09-30T16:56:08.314Z,1005.62
2018-09-30T16:57:08.298Z,1005.63
2018-09-30T16:58:08.283Z,1005.65
2018-09-30T16:59:08.264Z,1005.68
2018-09-30T17:00:08.251Z,1005.70
2018-09-30T17:01:09.059Z,1005.74
2018-09-30T17:02:08.216Z,1005.75
2018-09-30T17:03:08.213Z,1005.71
2018-09-30T17:04:08.182Z,1005.73
2018-09-30T17:05:08.165Z,1005.70
2018-09-30T17:06:08.182Z,1005.74
2018-09-30T17:07:08.133Z,1005.70
2018-09-30T17:08:08.117Z,1005.71
2018-09-30T17:09:08.101Z,1005.74
2018-09-30T17:10:08.085Z,1005.71
2018-09-30T17:11:08.067Z,1005.72
2018-09-30T17:12:08.103Z,1005.73
2018-09-30T17:13:08.035Z,1005.75
2018-09-30T17:14:08.015Z,1005.76
2018-09-30T17:15:08.001Z,1005.76
2018-09-30T17:16:08.080Z,1005.78
2018-09-30T17:17:07.977Z,1005.73
2018-09-30T17:18:07.951Z,1005.74
2018-09-30T17:19:08.024Z,1005.76
2018-09-30T17:20:07.917Z,1005.80
2018-09-30T17:21:07.899Z,1005.79
2018-09-30T17:22:07.903Z,1005.76
2018-09-30T17:23:07.865Z,1005.76
2018-09-30T17:24:07.845Z,1005.81
2018-09-30T17:25:07.828Z,1005.80
2018-09-30T17:26:07.823Z,1005.78
2018-09-30T17:27:07.796Z,1005.80
2018-09-30T17:28:07.787Z,1005.88
2018-09-30T17:29:07.758Z,1005.88
2018-09-30T17:30:07.741Z,1005.85
2018-09-30T17:31:07.764Z,1005.86
2018-09-30T17:32:07.713Z,1005.88
2018-09-30T17:33:07.706Z,1005.91
2018-09-30T17:34:07.673Z,1005.91
2018-09-30T17:35:07.657Z,1005.92
2018-09-30T17:36:07.638Z,1005.94
2018-09-30T17:37:07.622Z,1006.01
2018-09-30T17:38:07.603Z,1006.02
2018-09-30T17:39:07.594Z,1006.01
2018-09-30T17:40:07.574Z,1006.05
2018-09-30T17:41:07.554Z,1006.07
2018-09-30T17:42:07.533Z,1006.07
2018-09-30T17:43:07.521Z,1006.10
2018-09-30T17:44:07.508Z,1006.11
2018-09-30T17:45:07.478Z,1006.07
2018-09-30T17:46:07.461Z,1006.11
2018-09-30T17:47:07.445Z,1006.10
2018-09-30T17:48:07.424Z,1006.07
2018-09-30T17:49:07.440Z,1006.05
2018-09-30T17:50:07.390Z,1006.08
2018-09-30T17:51:07.411Z,1006.03
2018-09-30T17:52:07.354Z,1006.05
2018-09-30T17:53:07.336Z,1006.07
2018-09-30T17:54:07.324Z,1006.07
2018-09-30T17:55:07.312Z,1006.06
2018-09-30T17:56:07.283Z,1006.08
2018-09-30T17:57:07.264Z,1006.08
2018-09-30T17:58:07.309Z,1006.11
2018-09-30T17:59:07.229Z,1006.10
2018-09-30T18:00:07.225Z,1006.12
2018-09-30T18:01:07.217Z,1006.14
2018-09-30T18:02:07.174Z,1006.14
2018-09-30T18:03:07.155Z,1006.13
2018-09-30T18:04:07.188Z,1006.13
2018-09-30T18:05:07.119Z,1006.14
2018-09-30T18:06:07.111Z,1006.16
2018-09-30T18:07:07.083Z,1006.18
2018-09-30T18:08:07.064Z,1006.22
2018-09-30T18:09:07.046Z,1006.19
2018-09-30T18:10:07.030Z,1006.24
2018-09-30T18:11:07.113Z,1006.25
2018-09-30T18:12:06.990Z,1006.24
2018-09-30T18:13:06.973Z,1006.24
2018-09-30T18:14:06.954Z,1006.23
2018-09-30T18:15:06.935Z,1006.23
2018-09-30T18:16:06.937Z,1006.26
2018-09-30T18:17:06.907Z,1006.26
2018-09-30T18:18:06.900Z,1006.31
2018-09-30T18:19:06.857Z,1006.27
2018-09-30T18:20:06.842Z,1006.29
2018-09-30T18:21:06.823Z,1006.22
2018-09-30T18:22:06.814Z,1006.24
2018-09-30T18:23:06.788Z,1006.22
2018-09-30T18:24:06.771Z,1006.23
2018-09-30T18:25:06.753Z,1006.23
2018-09-30T18:26:06.738Z,1006.26
2018-09-30T18:27:06.736Z,1006.27
2018-09-30T18:28:06.725Z,1006.30
2018-09-30T18:29:06.676Z,1006.25
2018-09-30T18:30:06.655Z,1006.27
2018-09-30T18:31:06.636Z,1006.28
2018-09-30T18:32:06.626Z,1006.30
2018-09-30T18:33:06.598Z,1006.25
2018-09-30T18:34:06.606Z,1006.29
2018-09-30T18:35:06.560Z,1006.26
2018-09-30T18:36:06.557Z,1006.29
2018-09-30T18:37:06.541Z,1006.24
2018-09-30T18:38:06.503Z,1006.24
2018-09-30T18:39:06.495Z,1006.24
2018-09-30T18:40:06.506Z,1006.28
2018-09-30T18:41:06.445Z,1006.26
2018-09-30T18:42:06.434Z,1006.22
2018-09-30T18:43:06.408Z,1006.28
2018-09-30T18:44:06.390Z,1006.27
2018-09-30T18:45:06.373Z,1006.23
2018-09-30T18:46:06.351Z,1006.23
2018-09-30T18:47:06.337Z,1006.22
2018-09-30T18:48:06.310Z,1006.24
2018-09-30T18:49:06.291Z,1006.23
2018-09-30T18:50:06.274Z,1006.20
2018-09-30T18:51:06.255Z,1006.24
2018-09-30T18:52:06.247Z,1006.22
2018-09-30T18:53:06.217Z,1006.16
2018-09-30T18:54:06.196Z,1006.24
2018-09-30T18:55:06.176Z,1006.20
2018-09-30T18:56:06.280Z,1006.22
2018-09-30T18:57:06.139Z,1006.23
2018-09-30T18:58:06.125Z,1006.28
2018-09-30T18:59:06.097Z,1006.25
2018-09-30T19:00:06.079Z,1006.25
2018-09-30T19:01:06.060Z,1006.25
2018-09-30T19:02:06.041Z,1006.23
2018-09-30T19:03:06.035Z,1006.27
2018-09-30T19:04:05.998Z,1006.23
2018-09-30T19:05:05.982Z,1006.23
2018-09-30T19:06:05.971Z,1006.20
2018-09-30T19:07:05.943Z,1006.19
2018-09-30T19:08:05.934Z,1006.18
2018-09-30T19:09:05.901Z,1006.18
2018-09-30T19:10:05.882Z,1006.17
2018-09-30T19:11:05.862Z,1006.19
2018-09-30T19:12:05.898Z,1006.16
2018-09-30T19:13:05.830Z,1006.16
2018-09-30T19:14:05.804Z,1006.22
2018-09-30T19:15:05.841Z,1006.21
2018-09-30T19:16:05.850Z,1006.19
2018-09-30T19:17:05.743Z,1006.24
2018-09-30T19:18:05.732Z,1006.21
2018-09-30T19:19:05.718Z,1006.20
2018-09-30T19:20:05.688Z,1006.21
2018-09-30T19:21:05.664Z,1006.25
2018-09-30T19:22:05.719Z,1006.24
2018-09-30T19:23:05.634Z,1006.19
2018-09-30T19:24:05.603Z,1006.22
2018-09-30T19:25:05.638Z,1006.20
2018-09-30T19:26:05.563Z,1006.21
2018-09-30T19:27:05.545Z,1006.21
2018-09-30T19:28:05.531Z,1006.17
2018-09-30T19:29:05.502Z,1006.17
2018-09-30T19:30:05.544Z,1006.19
2018-09-30T19:31:05.463Z,1006.19
2018-09-30T19:32:05.440Z,1006.21
2018-09-30T19:33:05.457Z,1006.21
2018-09-30T19:34:05.403Z,1006.27
2018-09-30T19:35:05.384Z,1006.26
2018-09-30T19:36:05.387Z,1006.21
2018-09-30T19:37:05.340Z,1006.22
2018-09-30T19:38:05.322Z,1006.26
2018-09-30T19:39:05.376Z,1006.29
2018-09-30T19:42:51.593Z,1006.25
2018-09-30T19:43:49.902Z,1006.24
2018-09-30T19:44:49.876Z,1006.26
2018-09-30T19:45:49.855Z,1006.24
2018-09-30T19:46:49.848Z,1006.20
2018-09-30T19:47:49.815Z,1006.23
2018-09-30T19:48:49.804Z,1006.25
2018-09-30T19:49:49.776Z,1006.24
2018-09-30T19:50:49.752Z,1006.27
2018-09-30T19:51:49.746Z,1006.26
2018-09-30T19:52:49.712Z,1006.25
2018-09-30T19:53:49.737Z,1006.22
2018-09-30T19:54:49.673Z,1006.22
2018-09-30T19:55:49.652Z,1006.19
2018-09-30T19:56:49.649Z,1006.22
2018-09-30T19:57:49.608Z,1006.23
2018-09-30T19:58:49.590Z,1006.22
2018-09-30T19:59:49.568Z,1006.20
2018-09-30T20:00:49.549Z,1006.21
2018-09-30T20:01:49.527Z,1006.18
2018-09-30T20:02:49.516Z,1006.21
2018-09-30T20:03:49.482Z,1006.18
2018-09-30T20:04:49.460Z,1006.17
2018-09-30T20:05:49.443Z,1006.20
2018-09-30T20:06:49.424Z,1006.23
2018-09-30T20:07:49.412Z,1006.21
2018-09-30T20:08:49.382Z,1006.22
2018-09-30T20:09:49.360Z,1006.23
2018-09-30T20:10:49.342Z,1006.21
2018-09-30T20:11:49.325Z,1006.23
2018-09-30T20:12:49.310Z,1006.21
2018-09-30T20:13:49.282Z,1006.22
2018-09-30T20:14:49.257Z,1006.22
2018-09-30T20:15:49.237Z,1006.20
2018-09-30T20:16:49.214Z,1006.22
2018-09-30T20:17:49.217Z,1006.21
2018-09-30T20:18:49.174Z,1006.26
2018-09-30T20:19:49.156Z,1006.22
2018-09-30T20:20:49.164Z,1006.26
2018-09-30T20:21:49.110Z,1006.23
2018-09-30T20:22:49.089Z,1006.25
2018-09-30T20:23:49.079Z,1006.24
2018-09-30T20:24:49.069Z,1006.24
2018-09-30T20:25:49.024Z,1006.26
2018-09-30T20:26:49.012Z,1006.25
2018-09-30T20:27:48.981Z,1006.19
2018-09-30T20:28:49.057Z,1006.20
2018-09-30T20:29:48.945Z,1006.22
2018-09-30T20:30:48.919Z,1006.23
2018-09-30T20:31:48.899Z,1006.24
2018-09-30T20:32:48.880Z,1006.22
2018-09-30T20:33:48.875Z,1006.20
2018-09-30T20:34:48.842Z,1006.21
2018-09-30T20:35:48.815Z,1006.17
2018-09-30T20:36:48.794Z,1006.18
2018-09-30T20:37:48.772Z,1006.17
2018-09-30T20:38:48.858Z,1006.15
2018-09-30T20:39:48.734Z,1006.12
2018-09-30T20:40:48.708Z,1006.13
2018-09-30T20:41:48.687Z,1006.13
2018-09-30T20:42:48.666Z,1006.16
2018-09-30T20:43:48.647Z,1006.11
2018-09-30T20:44:48.633Z,1006.09
2018-09-30T20:45:48.606Z,1006.08
2018-09-30T20:46:48.583Z,1006.10
2018-09-30T20:47:48.559Z,1006.05
2018-09-30T20:48:48.582Z,1006.07
2018-09-30T20:49:48.533Z,1006.08
2018-09-30T20:50:48.496Z,1006.09
2018-09-30T20:51:48.474Z,1006.10
2018-09-30T20:52:48.460Z,1006.10
2018-09-30T20:53:48.439Z,1006.10
2018-09-30T20:54:48.426Z,1006.14
2018-09-30T20:55:48.401Z,1006.18
2018-09-30T20:56:48.376Z,1006.13
2018-09-30T20:57:48.348Z,1006.12
2018-09-30T20:58:48.326Z,1006.05
2018-09-30T20:59:48.327Z,1006.05
2018-09-30T21:00:48.290Z,1006.02
2018-09-30T21:01:48.264Z,1006.03
2018-09-30T21:02:48.253Z,1006.04
2018-09-30T21:03:48.227Z,1006.06
2018-09-30T21:04:48.262Z,1006.06
2018-09-30T21:05:48.180Z,1006.06
2018-09-30T21:06:48.158Z,1006.08
2018-09-30T21:07:48.139Z,1006.09
2018-09-30T21:08:48.116Z,1006.14
2018-09-30T21:09:48.100Z,1006.15
2018-09-30T21:10:48.098Z,1006.16
2018-09-30T21:11:48.056Z,1006.16
2018-09-30T21:12:48.029Z,1006.14
2018-09-30T21:13:48.009Z,1006.12
2018-09-30T21:14:47.988Z,1006.12
2018-09-30T21:15:47.976Z,1006.08
2018-09-30T21:16:47.946Z,1006.06
2018-09-30T21:17:47.925Z,1006.05
2018-09-30T21:18:47.950Z,1006.04
2018-09-30T21:19:47.886Z,1006.02
2018-09-30T21:20:47.896Z,1005.98
2018-09-30T21:21:47.841Z,1005.98
2018-09-30T21:22:47.819Z,1006.04
2018-09-30T21:23:47.797Z,1006.05
2018-09-30T21:24:47.774Z,1006.11
2018-09-30T21:25:47.753Z,1006.12
2018-09-30T21:26:47.745Z,1006.12
2018-09-30T21:27:47.710Z,1006.10
2018-09-30T21:28:47.691Z,1006.11
2018-09-30T21:29:47.670Z,1006.07
2018-09-30T21:30:47.648Z,1006.08
2018-09-30T21:31:47.636Z,1006.06
2018-09-30T21:32:47.605Z,1006.06
2018-09-30T21:33:47.582Z,1006.07
2018-09-30T21:34:47.564Z,1006.05
2018-09-30T21:35:47.542Z,1006.00
2018-09-30T21:36:47.527Z,1005.97
2018-09-30T21:37:47.497Z,1005.96
2018-09-30T21:38:47.477Z,1005.90
2018-09-30T21:39:47.453Z,1005.97
2018-09-30T21:40:47.435Z,1005.91
2018-09-30T21:41:47.449Z,1005.93
2018-09-30T21:42:47.389Z,1005.93
2018-09-30T21:43:47.369Z,1005.97
2018-09-30T21:44:47.347Z,1005.95
2018-09-30T21:45:47.325Z,1005.97
2018-09-30T21:46:47.304Z,1005.94
2018-09-30T21:47:47.290Z,1005.98
2018-09-30T21:48:47.331Z,1005.93
2018-09-30T21:49:47.238Z,1005.97
2018-09-30T21:50:47.218Z,1005.97
2018-09-30T21:51:47.209Z,1005.92
2018-09-30T21:52:47.176Z,1005.97
2018-09-30T21:53:47.153Z,1005.92
2018-09-30T21:54:47.130Z,1005.98
2018-09-30T21:55:47.110Z,1005.98
2018-09-30T21:56:47.090Z,1005.95
2018-09-30T21:57:47.077Z,1005.96
2018-09-30T21:58:47.044Z,1006.01
2018-09-30T21:59:47.023Z,1006.00
2018-09-30T22:00:47.001Z,1006.01
2018-09-30T22:01:47.003Z,1005.96
2018-09-30T22:02:46.968Z,1006.01
2018-09-30T22:03:46.937Z,1006.01
2018-09-30T22:04:46.913Z,1005.98
2018-09-30T22:05:46.891Z,1005.99
2018-09-30T22:06:46.871Z,1005.96
2018-09-30T22:07:46.857Z,1005.97
2018-09-30T22:08:46.829Z,1005.95
2018-09-30T22:09:46.809Z,1005.92
2018-09-30T22:10:46.786Z,1005.93
2018-09-30T22:11:46.761Z,1005.97
2018-09-30T22:12:46.752Z,1005.99
2018-09-30T22:13:46.717Z,1005.99
2018-09-30T22:14:46.699Z,1006.00
2018-09-30T22:15:46.672Z,1005.97
2018-09-30T22:16:46.651Z,1005.99
2018-09-30T22:17:46.638Z,1005.95
2018-09-30T22:18:46.608Z,1005.96
2018-09-30T22:19:46.587Z,1005.95
2018-09-30T22:20:46.566Z,1005.96
2018-09-30T22:21:46.542Z,1005.95
2018-09-30T22:22:46.532Z,1005.91
2018-09-30T22:23:46.499Z,1005.92
2018-09-30T22:24:46.477Z,1005.90
2018-09-30T22:25:46.456Z,1005.94
2018-09-30T22:26:46.455Z,1005.95
2018-09-30T22:27:46.424Z,1005.95
2018-09-30T22:28:46.389Z,1005.95
2018-09-30T22:29:46.368Z,1006.01
2018-09-30T22:30:46.346Z,1005.95
2018-09-30T22:31:46.325Z,1006.00
2018-09-30T22:32:46.312Z,1005.96
2018-09-30T22:33:46.284Z,1005.97
2018-09-30T22:34:46.262Z,1005.94
2018-09-30T22:35:46.241Z,1005.96
2018-09-30T22:36:46.215Z,1005.98
2018-09-30T22:37:46.204Z,1006.01
2018-09-30T22:38:46.173Z,1006.02
2018-09-30T22:39:46.151Z,1006.04
2018-09-30T22:40:46.130Z,1006.01
2018-09-30T22:41:46.108Z,1006.01
2018-09-30T22:42:46.096Z,1006.02
2018-09-30T22:43:46.064Z,1006.02
2018-09-30T22:44:46.042Z,1005.98
2018-09-30T22:45:46.022Z,1005.96
2018-09-30T22:46:45.998Z,1005.94
2018-09-30T22:47:45.988Z,1005.93
2018-09-30T22:48:45.953Z,1005.90
2018-09-30T22:49:45.931Z,1005.91
2018-09-30T22:50:45.910Z,1005.91
2018-09-30T22:51:45.888Z,1005.90
2018-09-30T22:52:45.883Z,1005.90
2018-09-30T22:53:45.845Z,1005.92
2018-09-30T22:54:45.826Z,1005.90
2018-09-30T22:55:45.801Z,1005.88
2018-09-30T22:56:45.780Z,1005.86
2018-09-30T22:57:45.761Z,1005.89
2018-09-30T22:58:45.744Z,1005.89
2018-09-30T22:59:45.713Z,1005.88
2018-09-30T23:00:45.691Z,1005.92
2018-09-30T23:01:45.670Z,1005.92
2018-09-30T23:02:45.648Z,1005.92
2018-09-30T23:03:45.639Z,1005.92
2018-09-30T23:04:45.628Z,1005.94
2018-09-30T23:05:45.583Z,1005.92
2018-09-30T23:06:45.564Z,1005.91
2018-09-30T23:07:45.541Z,1005.91
2018-09-30T23:08:45.526Z,1005.94
2018-09-30T23:09:45.499Z,1005.94
2018-09-30T23:10:45.476Z,1005.96
2018-09-30T23:11:45.456Z,1005.93
2018-09-30T23:12:45.431Z,1005.93
2018-09-30T23:13:45.429Z,1005.93
2018-09-30T23:14:45.390Z,1005.95
2018-09-30T23:15:45.368Z,1005.99
2018-09-30T23:16:45.344Z,1005.98
2018-09-30T23:17:45.327Z,1006.01
2018-09-30T23:18:45.303Z,1006.07
2018-09-30T23:19:45.288Z,1006.09
2018-09-30T23:20:45.265Z,1006.07
2018-09-30T23:21:45.237Z,1006.06
2018-09-30T23:22:45.217Z,1006.07
2018-09-30T23:23:45.192Z,1006.06
2018-09-30T23:24:45.184Z,1006.06
2018-09-30T23:25:45.151Z,1006.04
2018-09-30T23:26:45.128Z,1006.07
2018-09-30T23:27:45.106Z,1006.07
2018-09-30T23:28:45.086Z,1006.06
2018-09-30T23:29:45.078Z,1006.07
2018-09-30T23:30:45.044Z,1006.06
2018-09-30T23:31:45.018Z,1006.01
2018-09-30T23:32:44.996Z,1006.01
2018-09-30T23:33:44.977Z,1006.03
